Time;durP1;ratioP1;P1;durP2;ratioP2;P2;SDS_P1;SDS_P2;PMS_P1;PMS_P2;Temp;Humidity;BMP_temperature;BMP_pressure;BME280_temperature;BME280_humidity;BME280_pressure;Samples;Min_cycle;Max_cycle;Signal;HPM_P1;HPM_P2
2022/10/27 00:01:06;;;;;;;14.15;8.52;;;;;;;11.94;100.00;101171.16;5044410;28;20048;-72
2022/10/27 00:03:33;;;;;;;18.23;8.10;;;;;;;12.00;100.00;101200.09;5044078;28;20394;-72
2022/10/27 00:06:04;;;;;;;13.90;7.60;;;;;;;11.99;100.00;101194.84;5043159;28;20140;-72
2022/10/27 00:08:31;;;;;;;16.42;8.55;;;;;;;11.76;100.00;101163.91;5036039;28;20047;-71
2022/10/27 00:10:59;;;;;;;16.67;8.35;;;;;;;11.93;100.00;101201.28;5040281;28;20132;-72
2022/10/27 00:13:27;;;;;;;13.13;8.55;;;;;;;11.84;100.00;101189.22;5048879;28;20075;-72
2022/10/27 00:15:59;;;;;;;13.52;7.97;;;;;;;11.92;100.00;101194.25;5041013;28;20053;-72
2022/10/27 00:18:26;;;;;;;13.23;8.18;;;;;;;11.83;100.00;101176.88;5042318;28;20552;-73
2022/10/27 00:21:17;;;;;;;14.93;8.35;;;;;;;11.94;100.00;101200.34;5044803;28;20052;-72
2022/10/27 00:23:48;;;;;;;14.95;7.85;;;;;;;11.90;100.00;101190.78;5037077;28;20045;-73
2022/10/27 00:26:16;;;;;;;12.75;8.80;;;;;;;11.89;100.00;101197.88;5042035;28;20051;-74
2022/10/27 00:28:43;;;;;;;13.23;8.10;;;;;;;11.92;100.00;101208.38;5041192;28;20053;-72
2022/10/27 00:31:15;;;;;;;18.17;9.32;;;;;;;11.79;100.00;101182.38;5047882;28;20045;-72
2022/10/27 00:33:44;;;;;;;16.42;10.30;;;;;;;11.89;100.00;101207.63;5040192;28;20057;-72
2022/10/27 00:36:14;;;;;;;14.82;7.93;;;;;;;11.85;100.00;101212.19;5039182;28;20055;-72
2022/10/27 00:38:41;;;;;;;14.50;8.98;;;;;;;11.79;100.00;101219.53;5039901;28;20102;-72
2022/10/27 00:41:24;;;;;;;15.98;8.68;;;;;;;11.67;100.00;101204.03;5049247;28;20766;-72
2022/10/27 00:43:51;;;;;;;14.02;8.38;;;;;;;11.69;100.00;101213.66;5048648;28;20061;-72
2022/10/27 00:46:27;;;;;;;12.77;8.70;;;;;;;11.60;100.00;101214.91;5037601;28;20151;-72
2022/10/27 00:48:59;;;;;;;12.35;8.02;;;;;;;11.48;100.00;101204.75;5035683;28;20047;-72
2022/10/27 00:51:26;;;;;;;17.90;7.97;;;;;;;11.42;100.00;101210.28;5040273;28;20073;-72
2022/10/27 00:53:53;;;;;;;14.18;7.93;;;;;;;11.43;100.00;101222.63;5040804;28;20523;-72
2022/10/27 00:56:21;;;;;;;11.80;7.85;;;;;;;11.47;100.00;101223.38;5040749;28;20040;-72
2022/10/27 00:58:49;;;;;;;17.83;8.40;;;;;;;11.38;100.00;101223.69;5031391;28;20044;-72
2022/10/27 01:01:16;;;;;;;12.65;8.82;;;;;;;11.31;100.00;101225.72;5037904;28;20505;-72
2022/10/27 01:03:44;;;;;;;15.85;8.93;;;;;;;11.27;100.00;101233.84;5038128;28;20045;-72
2022/10/27 01:06:12;;;;;;;11.57;8.32;;;;;;;11.25;100.00;101218.00;5045623;28;20053;-72
2022/10/27 01:08:39;;;;;;;11.50;8.18;;;;;;;11.28;100.00;101220.53;5031729;28;20049;-72
2022/10/27 01:11:05;;;;;;;17.48;8.68;;;;;;;11.27;100.00;101209.97;5044303;28;20055;-72
2022/10/27 01:13:32;;;;;;;14.18;8.50;;;;;;;11.21;100.00;101211.06;5035925;28;20041;-72
2022/10/27 01:16:15;;;;;;;13.25;8.45;;;;;;;11.19;100.00;101223.50;5034234;28;20055;-72
2022/10/27 01:18:57;;;;;;;12.48;8.13;;;;;;;11.16;100.00;101218.34;5035738;28;20557;-73
2022/10/27 01:21:36;;;;;;;15.18;8.20;;;;;;;11.19;100.00;101220.84;5046055;28;20040;-71
2022/10/27 01:24:51;;;;;;;13.07;8.90;;;;;;;11.17;100.00;101217.41;5048529;28;20528;-72
2022/10/27 01:27:36;;;;;;;12.27;8.75;;;;;;;11.11;100.00;101215.84;5031203;28;20051;-72
2022/10/27 01:30:03;;;;;;;18.65;9.13;;;;;;;11.09;100.00;101208.88;5029246;28;20084;-72
2022/10/27 01:32:48;;;;;;;16.02;9.20;;;;;;;11.04;100.00;101214.31;5039829;28;20406;-72
2022/10/27 01:35:54;;;;;;;12.07;8.68;;;;;;;11.07;100.00;101223.97;5039849;28;21812;-72
2022/10/27 01:38:26;;;;;;;15.15;8.30;;;;;;;11.13;100.00;101213.16;4959144;28;20141;-72
2022/10/27 01:40:58;;;;;;;11.63;8.52;;;;;;;11.17;100.00;101220.06;5022693;28;20076;-72
2022/10/27 01:43:27;;;;;;;11.88;8.00;;;;;;;11.17;100.00;101214.78;5038058;28;20128;-71
2022/10/27 01:45:55;;;;;;;12.25;8.63;;;;;;;11.09;100.00;101196.47;5037543;28;20392;-72
2022/10/27 01:48:22;;;;;;;14.60;8.82;;;;;;;11.22;100.00;101215.44;5036284;28;20045;-71
2022/10/27 01:50:48;;;;;;;11.80;7.70;;;;;;;11.23;100.00;101220.69;5038208;28;20052;-72
2022/10/27 01:53:32;;;;;;;12.32;8.43;;;;;;;11.25;100.00;101213.56;5041488;28;20069;-72
2022/10/27 01:56:29;;;;;;;13.27;8.32;;;;;;;11.22;100.00;101205.72;5038230;28;20048;-73
2022/10/27 01:59:34;;;;;;;10.50;8.23;;;;;;;11.19;100.00;101208.47;5035532;28;20071;-71
2022/10/27 02:02:37;;;;;;;14.68;8.02;;;;;;;11.18;100.00;101219.13;5044881;28;20045;-70
2022/10/27 02:05:49;;;;;;;13.20;8.32;;;;;;;11.18;100.00;101216.47;5043310;28;20053;-71
2022/10/27 02:08:41;;;;;;;11.10;7.72;;;;;;;11.15;100.00;101213.97;5030909;28;20081;-71
2022/10/27 02:11:11;;;;;;;9.63;7.68;;;;;;;11.16;100.00;101218.34;5038955;28;20048;-71
2022/10/27 02:13:44;;;;;;;10.82;8.57;;;;;;;11.08;100.00;101215.09;5039121;28;20052;-72
2022/10/27 02:16:40;;;;;;;11.40;7.60;;;;;;;11.06;100.00;101223.09;5035593;28;20032;-71
2022/10/27 02:19:12;;;;;;;11.25;7.88;;;;;;;11.08;100.00;101220.38;5033935;28;20405;-73
2022/10/27 02:21:43;;;;;;;12.27;7.97;;;;;;;11.10;100.00;101221.19;5037982;28;20135;-73
2022/10/27 02:24:10;;;;;;;13.48;8.18;;;;;;;11.12;100.00;101211.41;5044344;28;20054;-70
2022/10/27 02:26:58;;;;;;;12.18;8.23;;;;;;;11.17;100.00;101228.03;5045427;28;20358;-74
2022/10/27 02:29:42;;;;;;;9.93;7.57;;;;;;;11.10;100.00;101231.81;5035565;28;20039;-71
2022/10/27 02:32:12;;;;;;;12.10;7.97;;;;;;;11.09;100.00;101224.78;5045433;28;20048;-71
2022/10/27 02:34:40;;;;;;;10.25;7.70;;;;;;;11.03;100.00;101230.28;5041518;28;20056;-73
2022/10/27 02:37:08;;;;;;;12.18;8.65;;;;;;;10.97;100.00;101236.69;5045710;28;20079;-73
2022/10/27 02:39:36;;;;;;;12.05;8.25;;;;;;;10.81;100.00;101212.50;5031765;28;20106;-73
2022/10/27 02:42:04;;;;;;;11.75;8.10;;;;;;;10.93;100.00;101240.34;5043078;28;20044;-72
2022/10/27 02:44:30;;;;;;;11.00;7.15;;;;;;;10.90;100.00;101233.38;5037271;28;20074;-73
2022/10/27 02:46:57;;;;;;;11.57;8.13;;;;;;;10.93;100.00;101247.44;5038309;28;20045;-73
2022/10/27 02:49:27;;;;;;;10.75;8.25;;;;;;;10.92;100.00;101245.69;5031669;28;20114;-73
2022/10/27 02:51:53;;;;;;;11.82;7.93;;;;;;;10.99;100.00;101233.97;5035525;28;20045;-73
2022/10/27 02:54:20;;;;;;;11.38;7.45;;;;;;;11.01;100.00;101240.97;5036288;28;20044;-74
2022/10/27 02:56:47;;;;;;;10.50;7.80;;;;;;;10.92;100.00;101237.75;5041298;28;20114;-71
2022/10/27 02:59:13;;;;;;;11.20;7.97;;;;;;;10.82;100.00;101232.78;5036013;28;20525;-72
2022/10/27 03:01:40;;;;;;;10.77;8.02;;;;;;;10.73;100.00;101235.72;5041023;28;20499;-72
2022/10/27 03:04:07;;;;;;;10.43;7.53;;;;;;;10.74;100.00;101231.28;5040958;28;20116;-73
2022/10/27 03:06:34;;;;;;;10.18;7.75;;;;;;;10.74;100.00;101229.50;5052165;28;20127;-72
2022/10/27 03:09:00;;;;;;;9.90;7.50;;;;;;;10.72;100.00;101212.81;5044314;28;20061;-73
2022/10/27 03:11:27;;;;;;;9.18;7.65;;;;;;;10.71;100.00;101202.25;5038891;28;20041;-73
2022/10/27 03:13:53;;;;;;;10.10;8.20;;;;;;;10.74;100.00;101210.09;5045395;28;20053;-73
2022/10/27 03:16:20;;;;;;;10.35;7.18;;;;;;;10.67;100.00;101214.78;5045454;28;20824;-73
2022/10/27 03:18:46;;;;;;;10.30;8.05;;;;;;;10.55;100.00;101208.09;5042248;28;20057;-73
2022/10/27 03:21:13;;;;;;;11.30;8.13;;;;;;;10.62;100.00;101214.06;5036052;28;20047;-72
2022/10/27 03:23:40;;;;;;;9.63;7.38;;;;;;;10.53;100.00;101185.25;5043862;28;20051;-72
2022/10/27 03:26:07;;;;;;;8.82;7.43;;;;;;;10.42;100.00;101163.53;5037919;28;20052;-73
2022/10/27 03:28:34;;;;;;;8.68;7.35;;;;;;;10.68;100.00;101210.34;5040622;28;20051;-72
2022/10/27 03:31:02;;;;;;;11.07;8.10;;;;;;;10.60;100.00;101207.06;5034698;28;20063;-73
2022/10/27 03:33:28;;;;;;;11.32;8.27;;;;;;;10.51;100.00;101214.44;5044898;28;20067;-73
2022/10/27 03:35:55;;;;;;;11.27;8.57;;;;;;;10.44;100.00;101218.19;5041830;28;20045;-73
2022/10/27 03:38:21;;;;;;;12.02;8.38;;;;;;;10.26;100.00;101202.03;5038807;28;20049;-73
2022/10/27 03:40:48;;;;;;;11.38;8.40;;;;;;;10.29;100.00;101208.09;5033307;28;20386;-74
2022/10/27 03:43:15;;;;;;;10.25;7.93;;;;;;;10.31;100.00;101218.63;5042054;28;20733;-72
2022/10/27 03:45:41;;;;;;;13.88;8.38;;;;;;;10.30;100.00;101232.78;5038498;28;20401;-72
2022/10/27 03:48:11;;;;;;;8.60;7.63;;;;;;;10.25;100.00;101232.94;5042883;28;20048;-71
2022/10/27 03:50:38;;;;;;;14.35;8.45;;;;;;;10.15;100.00;101220.88;5033485;28;20065;-72
2022/10/27 03:53:05;;;;;;;10.80;8.32;;;;;;;10.21;100.00;101236.63;5038948;28;20049;-71
2022/10/27 03:55:32;;;;;;;13.50;8.60;;;;;;;10.22;100.00;101234.84;5042240;28;20598;-71
2022/10/27 03:57:58;;;;;;;10.90;7.50;;;;;;;10.18;100.00;101226.09;5037618;28;20491;-71
2022/10/27 04:00:27;;;;;;;11.02;7.32;;;;;;;10.14;100.00;101227.97;5032271;28;20038;-71
2022/10/27 04:02:54;;;;;;;10.85;7.53;;;;;;;10.11;100.00;101232.47;5045016;28;20069;-71
2022/10/27 04:05:22;;;;;;;8.15;6.68;;;;;;;10.06;100.00;101227.34;5043698;28;20050;-72
2022/10/27 04:07:48;;;;;;;7.82;6.28;;;;;;;10.05;100.00;101233.56;5041556;28;20053;-72
2022/10/27 04:10:15;;;;;;;11.82;7.28;;;;;;;10.06;100.00;101243.22;5026606;28;20041;-72
2022/10/27 04:12:55;;;;;;;8.68;7.13;;;;;;;10.02;100.00;101240.72;5039829;28;20045;-72
2022/10/27 04:15:24;;;;;;;13.35;8.20;;;;;;;10.03;100.00;101243.31;5046172;28;20286;-72
2022/10/27 04:17:58;;;;;;;10.43;8.02;;;;;;;10.04;100.00;101247.69;5042714;28;20059;-72
2022/10/27 04:20:26;;;;;;;13.90;7.63;;;;;;;10.07;100.00;101250.22;5033360;28;20041;-73
2022/10/27 04:22:57;;;;;;;13.02;8.23;;;;;;;10.07;100.00;101247.56;5036650;28;20129;-72
2022/10/27 04:25:25;;;;;;;16.05;8.35;;;;;;;10.09;100.00;101256.34;5038071;28;20041;-73
2022/10/27 04:28:03;;;;;;;14.88;8.35;;;;;;;10.06;100.00;101253.81;5042295;28;20107;-72
2022/10/27 04:30:30;;;;;;;16.95;8.15;;;;;;;9.90;100.00;101230.53;5033138;28;20140;-73
2022/10/27 04:32:56;;;;;;;11.93;7.32;;;;;;;10.03;100.00;101250.38;5041368;28;20158;-72
2022/10/27 04:35:23;;;;;;;11.60;7.53;;;;;;;9.93;100.00;101231.25;5045216;28;20048;-72
2022/10/27 04:37:50;;;;;;;11.27;7.38;;;;;;;10.12;100.00;101250.94;5042896;28;20911;-71
2022/10/27 04:40:17;;;;;;;12.85;7.60;;;;;;;10.07;100.00;101225.56;5033304;28;20147;-71
2022/10/27 04:42:47;;;;;;;10.30;6.75;;;;;;;10.08;100.00;101220.19;5036261;28;20516;-74
2022/10/27 04:45:15;;;;;;;10.13;7.25;;;;;;;10.01;100.00;101213.38;5045352;28;20045;-72
2022/10/27 04:47:42;;;;;;;7.38;6.35;;;;;;;10.14;100.00;101241.19;5044367;28;20063;-72
2022/10/27 04:50:09;;;;;;;12.52;7.30;;;;;;;10.11;100.00;101236.00;5040430;28;20486;-73
2022/10/27 04:52:36;;;;;;;10.20;6.22;;;;;;;10.08;100.00;101240.50;5041827;28;20045;-73
2022/10/27 04:55:08;;;;;;;8.13;6.80;;;;;;;10.05;100.00;101232.69;5039234;28;20036;-74
2022/10/27 04:57:34;;;;;;;11.48;7.20;;;;;;;10.04;100.00;101229.16;5039492;28;20140;-73
2022/10/27 05:00:01;;;;;;;7.50;6.40;;;;;;;9.98;100.00;101229.34;5031955;28;20040;-72
2022/10/27 05:02:28;;;;;;;8.30;6.15;;;;;;;10.02;100.00;101233.66;5038852;28;20158;-73
2022/10/27 05:04:59;;;;;;;6.82;5.88;;;;;;;10.00;100.00;101229.31;5036311;28;20056;-72
2022/10/27 05:07:26;;;;;;;6.78;6.07;;;;;;;9.88;100.00;101217.34;5036664;28;20140;-72
2022/10/27 05:09:53;;;;;;;8.07;6.30;;;;;;;9.67;100.00;101217.97;5037300;28;20147;-73
2022/10/27 05:12:20;;;;;;;7.03;6.32;;;;;;;9.77;100.00;101237.94;5035901;28;20141;-72
2022/10/27 05:14:46;;;;;;;9.07;6.63;;;;;;;9.84;100.00;101236.84;5039118;28;20049;-70
2022/10/27 05:17:13;;;;;;;9.60;6.93;;;;;;;9.88;100.00;101243.78;5042770;28;20067;-71
2022/10/27 05:19:44;;;;;;;7.30;6.03;;;;;;;9.85;100.00;101228.88;5037867;28;20619;-71
2022/10/27 05:22:11;;;;;;;7.70;5.97;;;;;;;9.86;100.00;101224.44;5040046;28;20123;-71
2022/10/27 05:24:37;;;;;;;7.20;5.80;;;;;;;9.84;100.00;101226.28;5042160;28;20128;-73
2022/10/27 05:27:04;;;;;;;6.88;6.13;;;;;;;9.76;100.00;101228.25;5044840;28;20048;-72
2022/10/27 05:29:31;;;;;;;9.00;5.97;;;;;;;9.58;100.00;101215.63;5032534;28;20055;-73
2022/10/27 05:31:57;;;;;;;7.95;5.80;;;;;;;9.53;100.00;101214.88;5027079;28;20048;-72
2022/10/27 05:34:24;;;;;;;8.93;5.85;;;;;;;9.53;100.00;101233.41;5043070;28;20072;-72
2022/10/27 05:36:50;;;;;;;7.38;6.03;;;;;;;9.47;100.00;101230.00;5039752;28;20049;-72
2022/10/27 05:39:17;;;;;;;8.68;6.18;;;;;;;9.53;100.00;101230.75;5039224;28;20049;-71
2022/10/27 05:41:43;;;;;;;6.65;5.90;;;;;;;9.56;100.00;101230.66;5033988;28;20138;-71
2022/10/27 05:44:10;;;;;;;7.22;6.18;;;;;;;9.49;100.00;101230.84;5036562;28;20102;-71
2022/10/27 05:46:36;;;;;;;7.47;5.60;;;;;;;9.46;100.00;101240.63;5035600;28;20041;-73
2022/10/27 05:49:03;;;;;;;7.10;6.18;;;;;;;9.32;100.00;101226.94;5041175;28;20052;-72
2022/10/27 05:51:29;;;;;;;10.05;6.80;;;;;;;9.39;100.00;101241.72;5034310;28;20048;-72
2022/10/27 05:53:56;;;;;;;7.25;6.22;;;;;;;9.34;100.00;101228.63;5038330;28;20053;-72
2022/10/27 05:56:23;;;;;;;7.63;6.38;;;;;;;9.52;100.00;101250.16;5036351;28;20057;-73
2022/10/27 05:58:50;;;;;;;8.65;6.90;;;;;;;9.46;100.00;101214.19;5036392;28;20045;-71
2022/10/27 06:01:16;;;;;;;7.05;6.05;;;;;;;9.66;100.00;101232.13;5030697;28;20615;-73
2022/10/27 06:03:43;;;;;;;7.63;5.55;;;;;;;9.71;100.00;101246.94;5042364;28;20099;-73
2022/10/27 06:06:10;;;;;;;9.65;7.07;;;;;;;9.74;100.00;101232.75;5046365;28;20049;-73
2022/10/27 06:08:36;;;;;;;8.18;6.13;;;;;;;9.64;100.00;101213.66;5036881;28;20054;-72
2022/10/27 06:11:03;;;;;;;9.07;6.35;;;;;;;9.73;100.00;101231.03;5030968;28;20394;-71
2022/10/27 06:13:29;;;;;;;10.23;7.32;;;;;;;9.71;100.00;101232.84;5035121;28;20053;-71
2022/10/27 06:15:57;;;;;;;8.82;6.20;;;;;;;9.71;100.00;101238.16;5039662;28;20056;-71
2022/10/27 06:18:24;;;;;;;9.20;6.28;;;;;;;9.60;100.00;101217.28;5041512;28;20051;-72
2022/10/27 06:20:50;;;;;;;20.98;6.13;;;;;;;9.70;100.00;101223.19;5037710;28;20049;-72
2022/10/27 06:23:17;;;;;;;13.18;6.20;;;;;;;9.71;100.00;101222.28;5041639;28;20086;-73
2022/10/27 06:25:44;;;;;;;14.63;6.78;;;;;;;9.71;100.00;101219.63;5035665;28;20051;-73
2022/10/27 06:28:10;;;;;;;7.82;6.40;;;;;;;9.68;100.00;101212.66;5038267;28;20186;-73
2022/10/27 06:30:37;;;;;;;9.02;6.32;;;;;;;9.73;100.00;101209.88;5032765;28;20044;-72
2022/10/27 06:33:03;;;;;;;8.98;6.93;;;;;;;9.72;100.00;101189.63;5034736;28;20053;-71
2022/10/27 06:35:30;;;;;;;9.20;6.60;;;;;;;9.89;100.00;101204.97;5038000;28;20055;-74
2022/10/27 06:37:56;;;;;;;7.95;6.18;;;;;;;9.91;100.00;101208.44;5036010;28;20045;-70
2022/10/27 06:40:23;;;;;;;6.78;5.80;;;;;;;9.86;100.00;101216.50;5039721;28;20053;-73
2022/10/27 06:42:50;;;;;;;6.97;5.68;;;;;;;9.92;100.00;101223.38;4997918;28;20045;-71
2022/10/27 06:45:35;;;;;;;8.05;5.80;;;;;;;9.94;100.00;101230.34;5000102;28;20069;-71
2022/10/27 06:48:04;;;;;;;7.70;6.00;;;;;;;9.93;100.00;101230.41;5003735;28;20164;-71
2022/10/27 06:50:30;;;;;;;8.45;6.70;;;;;;;9.80;100.00;101214.03;4999675;28;20057;-71
2022/10/27 06:52:58;;;;;;;9.27;6.25;;;;;;;9.93;100.00;101231.25;5001400;28;20167;-71
2022/10/27 06:55:25;;;;;;;6.75;6.05;;;;;;;9.94;100.00;101217.13;4999775;28;21345;-71
2022/10/27 06:57:52;;;;;;;7.53;6.20;;;;;;;10.02;100.00;101236.28;5002623;28;20081;-72
2022/10/27 07:00:19;;;;;;;7.65;5.80;;;;;;;10.06;100.00;101242.34;4999980;28;20058;-73
2022/10/27 07:02:46;;;;;;;7.30;6.28;;;;;;;10.09;100.00;101244.88;4996636;28;20155;-72
2022/10/27 07:05:13;;;;;;;7.10;6.15;;;;;;;10.02;100.00;101217.78;5003798;28;20090;-72
2022/10/27 07:07:45;;;;;;;7.05;6.07;;;;;;;10.29;100.00;101249.59;5001963;28;20084;-72
2022/10/27 07:10:12;;;;;;;7.10;6.38;;;;;;;10.27;100.00;101230.22;5001041;28;20049;-71
2022/10/27 07:12:38;;;;;;;7.50;6.35;;;;;;;10.53;100.00;101264.69;4991729;28;20054;-72
2022/10/27 07:15:05;;;;;;;8.40;5.70;;;;;;;10.59;100.00;101267.13;5004643;28;20137;-72
2022/10/27 07:17:32;;;;;;;7.15;6.07;;;;;;;10.60;100.00;101262.69;4996977;28;20610;-72
2022/10/27 07:19:58;;;;;;;6.97;5.43;;;;;;;10.63;100.00;101279.34;5006114;28;20049;-72
2022/10/27 07:22:25;;;;;;;6.80;5.43;;;;;;;10.61;100.00;101278.53;4992423;28;20503;-71
2022/10/27 07:24:52;;;;;;;8.95;5.80;;;;;;;10.59;100.00;101264.47;4996319;28;20075;-72
2022/10/27 07:27:18;;;;;;;8.98;5.85;;;;;;;10.75;100.00;101286.88;4995668;28;20046;-73
2022/10/27 07:29:45;;;;;;;8.93;6.10;;;;;;;10.68;100.00;101264.19;5000730;28;20037;-73
2022/10/27 07:32:11;;;;;;;9.20;5.57;;;;;;;10.87;100.00;101302.34;4993067;28;20049;-70
2022/10/27 07:34:38;;;;;;;9.20;5.85;;;;;;;10.92;100.00;101288.09;4999579;28;20164;-71
2022/10/27 07:37:05;;;;;;;7.30;6.07;;;;;;;10.99;100.00;101289.63;4995201;28;20058;-72
2022/10/27 07:39:31;;;;;;;8.32;6.13;;;;;;;11.01;100.00;101287.81;5001498;28;20056;-72
2022/10/27 07:41:59;;;;;;;6.13;5.03;;;;;;;10.92;100.00;101269.56;5014966;28;20059;-72
2022/10/27 07:44:25;;;;;;;6.57;5.32;;;;;;;11.03;100.00;101281.50;5038437;28;20354;-74
2022/10/27 07:46:52;;;;;;;7.82;5.45;;;;;;;11.15;100.00;101294.34;5041889;28;20511;-72
2022/10/27 07:49:19;;;;;;;6.63;5.57;;;;;;;11.16;100.00;101292.56;5038634;28;20461;-73
2022/10/27 07:51:45;;;;;;;6.95;5.03;;;;;;;11.17;100.00;101287.22;5030141;28;20050;-72
2022/10/27 07:54:12;;;;;;;6.72;5.57;;;;;;;11.20;100.00;101275.59;5036668;28;20052;-72
2022/10/27 07:56:38;;;;;;;6.97;5.07;;;;;;;11.41;100.00;101297.84;5044834;28;20057;-73
2022/10/27 07:59:05;;;;;;;7.38;5.57;;;;;;;11.51;100.00;101296.59;5032676;28;20046;-72
2022/10/27 08:01:32;;;;;;;6.25;5.57;;;;;;;11.67;100.00;101300.41;5033460;28;20068;-72
2022/10/27 08:03:59;;;;;;;7.50;5.97;;;;;;;11.83;100.00;101300.72;5036358;28;20452;-73
2022/10/27 08:06:25;;;;;;;9.27;6.35;;;;;;;11.94;100.00;101294.13;5036657;28;20056;-72
2022/10/27 08:08:52;;;;;;;8.95;6.35;;;;;;;12.06;100.00;101287.47;5029275;28;20497;-73
2022/10/27 08:11:19;;;;;;;8.13;6.03;;;;;;;12.15;100.00;101286.22;5031966;28;20515;-71
2022/10/27 08:13:45;;;;;;;9.20;5.75;;;;;;;12.22;100.00;101283.28;5031201;28;20131;-72
2022/10/27 08:16:12;;;;;;;7.53;5.20;;;;;;;12.19;100.00;101270.13;5033593;28;20053;-71
2022/10/27 08:18:38;;;;;;;7.68;5.93;;;;;;;12.37;100.00;101283.59;5039701;28;20056;-71
2022/10/27 08:21:05;;;;;;;7.40;5.38;;;;;;;12.46;100.00;101291.19;5032430;28;20102;-71
2022/10/27 08:23:32;;;;;;;9.65;5.70;;;;;;;12.54;100.00;101292.59;5042571;28;20539;-72
2022/10/27 08:25:58;;;;;;;8.63;5.13;;;;;;;12.60;100.00;101283.50;5040069;28;20059;-72
2022/10/27 08:28:25;;;;;;;8.52;4.85;;;;;;;12.71;100.00;101281.28;5038104;28;20449;-73
2022/10/27 08:30:52;;;;;;;8.90;6.20;;;;;;;12.85;100.00;101275.38;5035738;28;20527;-73
2022/10/27 08:33:22;;;;;;;7.07;4.30;;;;;;;12.93;100.00;101263.47;5032660;28;20405;-71
2022/10/27 08:35:49;;;;;;;7.13;5.00;;;;;;;13.10;100.00;101272.53;5042384;28;20058;-72
2022/10/27 08:38:17;;;;;;;8.27;5.03;;;;;;;13.20;100.00;101273.91;5047224;28;20049;-72
2022/10/27 08:41:21;;;;;;;6.93;5.15;;;;;;;13.23;100.00;101257.78;5042706;28;20405;-72
2022/10/27 08:44:21;;;;;;;8.55;5.18;;;;;;;13.33;100.00;101251.16;5041699;28;20053;-73
2022/10/27 08:46:53;;;;;;;8.57;5.28;;;;;;;13.56;100.00;101264.25;5039965;28;20411;-72
2022/10/27 08:49:26;;;;;;;8.20;5.03;;;;;;;13.73;100.00;101271.47;5039880;28;20045;-73
2022/10/27 08:52:02;;;;;;;10.60;5.25;;;;;;;13.86;100.00;101269.09;5030289;28;20053;-73
2022/10/27 08:54:28;;;;;;;8.43;5.45;;;;;;;13.99;100.00;101265.81;5043717;28;20758;-73
2022/10/27 08:57:01;;;;;;;6.88;4.90;;;;;;;14.12;100.00;101258.09;5043539;28;20422;-72
2022/10/27 08:59:33;;;;;;;8.70;5.13;;;;;;;14.23;100.00;101263.78;5042074;28;20763;-71
2022/10/27 09:02:05;;;;;;;8.38;4.80;;;;;;;14.41;100.00;101262.06;5032805;28;20069;-72
2022/10/27 09:04:54;;;;;;;12.50;5.10;;;;;;;14.47;100.00;101243.09;5033551;28;20498;-72
2022/10/27 09:07:36;;;;;;;9.80;5.00;;;;;;;14.71;100.00;101265.84;5036057;28;20054;-73
2022/10/27 09:10:15;;;;;;;10.15;4.50;;;;;;;14.72;100.00;101248.94;5041819;28;20051;-72
2022/10/27 09:12:59;;;;;;;8.85;4.28;;;;;;;14.87;100.00;101239.28;5043214;28;20503;-72
2022/10/27 09:15:28;;;;;;;6.55;4.43;;;;;;;15.11;100.00;101257.63;5037418;28;20048;-73
2022/10/27 09:18:20;;;;;;;8.05;4.43;;;;;;;15.22;100.00;101245.47;5044831;28;20074;-72
2022/10/27 09:20:53;;;;;;;8.07;4.32;;;;;;;15.42;100.00;101249.75;5043367;28;20058;-72
2022/10/27 09:23:40;;;;;;;6.82;4.38;;;;;;;15.35;100.00;101230.50;5040110;28;20422;-72
2022/10/27 09:26:09;;;;;;;9.65;4.68;;;;;;;15.52;100.00;101250.09;5044582;28;20052;-71
2022/10/27 09:28:38;;;;;;;8.73;4.45;;;;;;;15.61;100.00;101252.28;5044223;28;20523;-72
2022/10/27 09:31:10;;;;;;;11.43;4.30;;;;;;;15.60;100.00;101229.22;5036442;28;20073;-72
2022/10/27 09:33:36;;;;;;;5.90;4.15;;;;;;;15.82;100.00;101253.78;5040955;28;20049;-72
2022/10/27 09:36:18;;;;;;;10.00;4.28;;;;;;;15.89;100.00;101249.84;5041099;28;20049;-72
2022/10/27 09:38:45;;;;;;;5.28;4.07;;;;;;;16.00;100.00;101251.91;5042559;28;20074;-72
2022/10/27 09:41:12;;;;;;;4.95;3.47;;;;;;;16.09;100.00;101256.75;5037489;28;20049;-72
2022/10/27 09:43:38;;;;;;;6.90;4.00;;;;;;;16.13;100.00;101250.28;5034490;28;20080;-72
2022/10/27 09:46:21;;;;;;;5.50;3.78;;;;;;;16.25;100.00;101259.41;5037092;28;20496;-71
2022/10/27 09:48:51;;;;;;;7.38;4.13;;;;;;;16.23;100.00;101237.25;5038754;28;20488;-73
2022/10/27 09:51:21;;;;;;;7.60;4.30;;;;;;;16.42;100.00;101245.94;5036909;28;20045;-73
2022/10/27 09:53:51;;;;;;;8.85;4.22;;;;;;;16.51;100.00;101240.06;5043816;28;20077;-72
2022/10/27 09:56:27;;;;;;;6.25;3.88;;;;;;;16.51;100.00;101229.38;5041780;28;20325;-73
2022/10/27 09:58:57;;;;;;;7.97;4.07;;;;;;;16.69;100.00;101238.16;5027733;28;20490;-72
2022/10/27 10:01:48;;;;;;;7.85;3.70;;;;;;;16.75;100.00;101244.00;5030821;28;20053;-74
2022/10/27 10:04:26;;;;;;;9.98;4.40;;;;;;;16.74;98.51;101222.69;5032366;28;20064;-72
2022/10/27 10:06:58;;;;;;;7.45;3.90;;;;;;;16.83;98.65;101232.88;5037102;28;20163;-73
2022/10/27 10:09:33;;;;;;;7.85;3.97;;;;;;;16.79;98.74;101220.63;5036150;28;20055;-72
2022/10/27 10:12:17;;;;;;;6.40;4.10;;;;;;;16.95;98.61;101240.16;5030330;28;20481;-72
2022/10/27 10:14:49;;;;;;;3.92;3.53;;;;;;;16.98;97.96;101221.25;5044263;28;20117;-72
2022/10/27 10:17:25;;;;;;;9.85;4.35;;;;;;;17.07;95.90;101211.78;5037477;28;20045;-73
2022/10/27 10:19:54;;;;;;;8.50;4.10;;;;;;;17.19;95.89;101227.09;5042153;28;20064;-75
2022/10/27 10:22:27;;;;;;;8.05;4.05;;;;;;;17.30;96.05;101229.97;5026716;28;20431;-73
2022/10/27 10:24:58;;;;;;;8.18;4.15;;;;;;;17.39;95.27;101229.41;5036020;28;20056;-73
2022/10/27 10:27:31;;;;;;;7.20;4.70;;;;;;;17.37;96.18;101217.06;5033650;28;20045;-72
2022/10/27 10:30:04;;;;;;;7.43;4.00;;;;;;;17.49;96.40;101221.66;5036025;28;20046;-74
2022/10/27 10:32:36;;;;;;;5.43;4.15;;;;;;;17.51;96.29;101215.25;5031156;28;20958;-73
2022/10/27 10:35:41;;;;;;;9.38;4.30;;;;;;;17.69;96.19;101221.28;5041465;28;20859;-72
2022/10/27 10:38:23;;;;;;;6.72;4.70;;;;;;;17.69;95.71;101199.84;5046268;28;20139;-73
2022/10/27 10:41:10;;;;;;;10.63;4.90;;;;;;;17.96;94.35;101215.97;5036275;28;20085;-73
2022/10/27 10:43:38;;;;;;;6.35;4.40;;;;;;;18.07;92.96;101209.94;5038027;28;20049;-72
2022/10/27 10:46:14;;;;;;;7.20;4.32;;;;;;;18.16;92.89;101214.69;5039508;28;20044;-72
2022/10/27 10:48:46;;;;;;;7.65;3.80;;;;;;;18.20;92.46;101203.66;5035462;28;20052;-73
2022/10/27 10:51:28;;;;;;;5.78;4.07;;;;;;;18.22;91.29;101193.72;5038439;28;20159;-72
2022/10/27 10:54:21;;;;;;;7.35;4.57;;;;;;;18.38;90.34;101208.78;5034640;28;20064;-72
2022/10/27 10:56:52;;;;;;;7.40;4.05;;;;;;;18.30;90.44;101182.47;5037427;28;20049;-74
2022/10/27 10:59:25;;;;;;;8.52;4.45;;;;;;;18.41;90.77;101198.72;5040653;28;20077;-72
2022/10/27 11:02:05;;;;;;;8.18;4.05;;;;;;;18.38;91.64;101209.63;5029894;28;20052;-73
2022/10/27 11:04:40;;;;;;;7.25;4.93;;;;;;;18.40;92.48;101201.50;5034798;28;20072;-73
2022/10/27 11:07:24;;;;;;;7.22;4.80;;;;;;;18.47;91.28;101187.56;5029181;28;20045;-73
2022/10/27 11:10:13;;;;;;;6.93;4.22;;;;;;;18.57;90.49;101187.81;5035442;28;20045;-72
2022/10/27 11:12:51;;;;;;;11.30;4.85;;;;;;;18.68;89.49;101195.16;5029661;28;20692;-74
2022/10/27 11:15:28;;;;;;;7.25;4.40;;;;;;;18.69;88.95;101191.50;5033589;28;20102;-72
2022/10/27 11:18:11;;;;;;;7.60;4.50;;;;;;;18.68;88.68;101190.66;5037090;28;20120;-72
2022/10/27 11:20:38;;;;;;;8.52;4.63;;;;;;;18.71;88.57;101184.22;5041641;28;20048;-72
2022/10/27 11:23:27;;;;;;;6.45;3.92;;;;;;;18.77;89.39;101181.09;5039504;28;20049;-72
2022/10/27 11:25:56;;;;;;;8.77;4.88;;;;;;;18.89;88.94;101180.25;5039647;28;20072;-72
2022/10/27 11:28:41;;;;;;;8.98;4.95;;;;;;;18.83;88.61;101178.00;5041154;28;20055;-72
2022/10/27 11:31:52;;;;;;;8.07;4.57;;;;;;;18.80;88.03;101171.03;5043330;28;20041;-73
2022/10/27 11:34:49;;;;;;;9.82;4.03;;;;;;;18.85;88.81;101168.03;5003903;28;20616;-74
2022/10/27 11:37:35;;;;;;;5.25;3.60;;;;;;;18.71;88.69;101146.66;4998594;28;20179;-73